04:09
Airports
History
Links
Donate
Help keep this website running!
PayPal
Bitcoin
This page is community maintained. The information is intended for PC simulator navigation or reference.
Always use approved charts for navigation.
DRRM
MARADI
MARADI (DRRM)
Maradi, Maradi, Niger
(U)
Lat/Lng:13° 30' 9.1" N / 7° 7' 36.31" E
13.502529 / 7.126753
Elevation:1240'ft / 378mMSL
ID / ICAO:DRRM
Runways:1
Longest:09-27
Asphalt 1,851m / 6,072ft
METAR18:00 GMT 2017-11-20
Altimeter: 29.88
Visibility: 6.2 statute miles
Wind: 4 knots (from 060°)
Temp: 32°c / 90°f
Humidity: 19.7%

METAR: DRRM 201800Z 06004KT CAVOK 32/06 Q1012

(Powered by phpweather)
Airport Radio Frequencies
Tower: 118.1
Nearby VORs <50NM
Nearby NDBs
Runway 09 / 27
Dimensions:1850.7 x 29.9m 6072' x 98'ft
Surface:Asphalt
Runway 09 [A]Runway 27 [B]
Heading:083°TH 263°TH
Lat:
Lng:
13° 30' 5.94"N
7° 7' 5.65"E
13° 30' 12.27"N
7° 8' 6.97"E
User Notes and Comments
13° 30' 9.1" N / 7° 7' 36.31" E
Distance To
Airport ID:
Nearby Airports
(C) KATSINA 49.5 NM
DN57 SE 133°
4 GUSAU 96.4 NM
DNGU SSW 197°
(C) ZINDER 126.1 NM
DRZR ( WX ) E 81°
(C) SADIQ ABUBAKAR III INTL 135.3 NM
DNSO WSW 252°
(C) MALLAM AMINU INTL 137.6 NM
DNKN ( WX ) SE 136°
(U) TAHOUA 156.7 NM
DRRT ( WX ) NW 307°
(C) ZARIA 168.2 NM
DNZA ( WX ) SSE 167°
VFR Chart
Flight Planning at SkyVector.com